Hinode Maru — JD3758 — position and weather

sailwx.info

Track history (hours):
 
Tides and Currents Weather Stations Pressure Air Temp Water Temp Dewpoint Dewpoint Depression Visibility Wind Speed Wind Dir Waves Ship Positions

Hinode Maru

Last reported at 2018-Jan-20 08:29 UTC. Time now 2018-Jan-20 13:05 UTC.
Position N 35°39' E 139°46'.

Length 33 m; draft 3.8 m.

Type: Tug. MMSI: 431005882.

Date/timePositionNaut miles runAvg speedWind from/ knotsBaromVisibWave heightAir tempDewpointWater temp
2018-Jan-20 08:29N 35°39' E 139°46'3 5.9
2018-Jan-20 08:00N 35°36' E 139°46'1 2.8
2018-Jan-20 07:30N 35°35' E 139°48'2 4.4
2018-Jan-20 07:00N 35°37' E 139°46'2 0.5
2018-Jan-20 03:19N 35°39' E 139°46'1 4.3
2018-Jan-20 03:01N 35°37' E 139°46'3 5.3
2018-Jan-20 02:31N 35°35' E 139°48'2 3.2
2018-Jan-20 02:00N 35°34' E 139°49'510.1
2018-Jan-20 01:30N 35°38' E 139°45'1 0.0
2018-Jan-19 10:06N 35°39' E 139°46'110.1
2018-Jan-19 10:01N 35°38' E 139°46'1 1.4
2018-Jan-19 09:30N 35°37' E 139°46'0 0.2
2018-Jan-19 09:00N 35°37' E 139°46'3 5.4
2018-Jan-19 08:30N 35°37' E 139°49'2 3.3
2018-Jan-19 07:59N 35°36' E 139°47'0 0.3
2018-Jan-19 07:30N 35°36' E 139°48'0 0.0
2018-Jan-19 06:46N 35°36' E 139°48'2 6.6
2018-Jan-19 06:27N 35°36' E 139°50'1 3.1
2018-Jan-19 06:00N 35°37' E 139°49'1 2.2
2018-Jan-19 05:26N 35°37' E 139°48'3 0.4
2018-Jan-18 23:44N 35°38' E 139°46'2 9.0
2018-Jan-18 23:30N 35°36' E 139°46'0 0.7
2018-Jan-18 22:55N 35°36' E 139°46'1 3.2
2018-Jan-18 22:30N 35°35' E 139°48'3 6.4
2018-Jan-18 22:00N 35°33' E 139°51'1 2.3
2018-Jan-18 21:30N 35°34' E 139°49'3 5.6
2018-Jan-18 21:00N 35°36' E 139°47'1 1.4
2018-Jan-18 20:30N 35°37' E 139°47'2 3.6
2018-Jan-18 20:00N 35°38' E 139°46'  
2018-Jan-12 14:17N 35°39' E 139°46'0 0.0
2018-Jan-12 13:54N 35°39' E 139°46'0 0.0
2018-Jan-12 13:26N 35°39' E 139°46'0 0.0
2018-Jan-12 12:51N 35°39' E 139°46'0 0.0
2018-Jan-12 12:19N 35°39' E 139°46'0 0.0
2018-Jan-12 11:56N 35°39' E 139°46'0 0.0
2018-Jan-12 11:19N 35°39' E 139°46'0 0.0
2018-Jan-12 10:57N 35°39' E 139°46'0 0.0
2018-Jan-12 10:23N 35°39' E 139°46'0 0.0
2018-Jan-11 12:35N 35°38' E 139°46'0 5.0
2018-Jan-11 12:30N 35°38' E 139°46'2 3.5
2018-Jan-11 12:00N 35°37' E 139°47'1 1.5
2018-Jan-11 11:31N 35°36' E 139°47'2 5.0
2018-Jan-11 11:01N 35°34' E 139°49'2 4.6
2018-Jan-11 10:29N 35°35' E 139°47'0 0.0
2018-Jan-11 10:00N 35°35' E 139°47'1 2.0
2018-Jan-11 09:30N 35°36' E 139°46'1 2.4
2018-Jan-11 08:59N 35°35' E 139°47'2 4.4
2018-Jan-11 08:30N 35°34' E 139°49'4 8.3
2018-Jan-11 08:00N 35°37' E 139°46'2 2.4
2018-Jan-11 07:22N 35°39' E 139°46'0 0.0
2018-Jan-11 06:53N 35°39' E 139°46'0 0.0
2018-Jan-11 06:28N 35°39' E 139°46'0 0.0
2018-Jan-11 05:58N 35°39' E 139°46'0 0.1
2018-Jan-11 03:53N 35°39' E 139°46'1 1.7
2018-Jan-11 03:30N 35°39' E 139°47'4 7.7
2018-Jan-11 03:00N 35°35' E 139°48'1 0.4
2018-Jan-11 00:22N 35°35' E 139°47'0 0.0
2018-Jan-10 23:59N 35°35' E 139°47'1 2.3
2018-Jan-10 23:30N 35°37' E 139°47'3 5.4
2018-Jan-10 23:00N 35°34' E 139°49'2 4.9
2018-Jan-10 22:30N 35°36' E 139°47'3 0.2
2018-Jan-10 10:43N 35°39' E 139°46'210.9
2018-Jan-10 10:30N 35°36' E 139°47'1 1.5
2018-Jan-10 10:00N 35°36' E 139°47'1 1.6
2018-Jan-10 09:28N 35°37' E 139°47'0 0.5
2018-Jan-10 09:00N 35°37' E 139°47'0 0.3
2018-Jan-10 08:30N 35°37' E 139°47'  
Track history (hours):
 
Tides and Currents Weather Stations Pressure Air Temp Water Temp Dewpoint Dewpoint Depression Visibility Wind Speed Wind Dir Waves Ship Positions

Hinode Maru

Last reported at 2018-Jan-20 08:29 UTC. Time now 2018-Jan-20 13:05 UTC.
Position N 35°39' E 139°46'.

Length 33 m; draft 3.8 m.

Type: Tug. MMSI: 431005882.

Date/timePositionNaut miles runAvg speedWind from/ knotsBaromVisibWave heightAir tempDewpointWater temp
2018-Jan-20 08:29N 35°39' E 139°46'3 5.9
2018-Jan-20 08:00N 35°36' E 139°46'1 2.8
2018-Jan-20 07:30N 35°35' E 139°48'2 4.4
2018-Jan-20 07:00N 35°37' E 139°46'2 0.5
2018-Jan-20 03:19N 35°39' E 139°46'1 4.3
2018-Jan-20 03:01N 35°37' E 139°46'3 5.3
2018-Jan-20 02:31N 35°35' E 139°48'2 3.2
2018-Jan-20 02:00N 35°34' E 139°49'510.1
2018-Jan-20 01:30N 35°38' E 139°45'1 0.0
2018-Jan-19 10:06N 35°39' E 139°46'110.1
2018-Jan-19 10:01N 35°38' E 139°46'1 1.4
2018-Jan-19 09:30N 35°37' E 139°46'0 0.2
2018-Jan-19 09:00N 35°37' E 139°46'3 5.4
2018-Jan-19 08:30N 35°37' E 139°49'2 3.3
2018-Jan-19 07:59N 35°36' E 139°47'0 0.3
2018-Jan-19 07:30N 35°36' E 139°48'0 0.0
2018-Jan-19 06:46N 35°36' E 139°48'2 6.6
2018-Jan-19 06:27N 35°36' E 139°50'1 3.1
2018-Jan-19 06:00N 35°37' E 139°49'1 2.2
2018-Jan-19 05:26N 35°37' E 139°48'3 0.4
2018-Jan-18 23:44N 35°38' E 139°46'2 9.0
2018-Jan-18 23:30N 35°36' E 139°46'0 0.7
2018-Jan-18 22:55N 35°36' E 139°46'1 3.2
2018-Jan-18 22:30N 35°35' E 139°48'3 6.4
2018-Jan-18 22:00N 35°33' E 139°51'1 2.3
2018-Jan-18 21:30N 35°34' E 139°49'3 5.6
2018-Jan-18 21:00N 35°36' E 139°47'1 1.4
2018-Jan-18 20:30N 35°37' E 139°47'2 3.6
2018-Jan-18 20:00N 35°38' E 139°46'  
2018-Jan-12 14:17N 35°39' E 139°46'0 0.0
2018-Jan-12 13:54N 35°39' E 139°46'0 0.0
2018-Jan-12 13:26N 35°39' E 139°46'0 0.0
2018-Jan-12 12:51N 35°39' E 139°46'0 0.0
2018-Jan-12 12:19N 35°39' E 139°46'0 0.0
2018-Jan-12 11:56N 35°39' E 139°46'0 0.0
2018-Jan-12 11:19N 35°39' E 139°46'0 0.0
2018-Jan-12 10:57N 35°39' E 139°46'0 0.0
2018-Jan-12 10:23N 35°39' E 139°46'0 0.0
2018-Jan-11 12:35N 35°38' E 139°46'0 5.0
2018-Jan-11 12:30N 35°38' E 139°46'2 3.5
2018-Jan-11 12:00N 35°37' E 139°47'1 1.5
2018-Jan-11 11:31N 35°36' E 139°47'2 5.0
2018-Jan-11 11:01N 35°34' E 139°49'2 4.6
2018-Jan-11 10:29N 35°35' E 139°47'0 0.0
2018-Jan-11 10:00N 35°35' E 139°47'1 2.0
2018-Jan-11 09:30N 35°36' E 139°46'1 2.4
2018-Jan-11 08:59N 35°35' E 139°47'2 4.4
2018-Jan-11 08:30N 35°34' E 139°49'4 8.3
2018-Jan-11 08:00N 35°37' E 139°46'2 2.4
2018-Jan-11 07:22N 35°39' E 139°46'0 0.0
2018-Jan-11 06:53N 35°39' E 139°46'0 0.0
2018-Jan-11 06:28N 35°39' E 139°46'0 0.0
2018-Jan-11 05:58N 35°39' E 139°46'0 0.1
2018-Jan-11 03:53N 35°39' E 139°46'1 1.7
2018-Jan-11 03:30N 35°39' E 139°47'4 7.7
2018-Jan-11 03:00N 35°35' E 139°48'1 0.4
2018-Jan-11 00:22N 35°35' E 139°47'0 0.0
2018-Jan-10 23:59N 35°35' E 139°47'1 2.3
2018-Jan-10 23:30N 35°37' E 139°47'3 5.4
2018-Jan-10 23:00N 35°34' E 139°49'2 4.9
2018-Jan-10 22:30N 35°36' E 139°47'3 0.2
2018-Jan-10 10:43N 35°39' E 139°46'210.9
2018-Jan-10 10:30N 35°36' E 139°47'1 1.5
2018-Jan-10 10:00N 35°36' E 139°47'1 1.6
2018-Jan-10 09:28N 35°37' E 139°47'0 0.5
2018-Jan-10 09:00N 35°37' E 139°47'0 0.3
2018-Jan-10 08:30N 35°37' E 139°47'  

Dump ship's entire track history